aviador You're here:

KRCM Decoded Metar

in _UNIDENTIFIED
Report Time2017-06-25 13:55:00
UTC Time2017-06-25 14:00:22
Flight Rules vfr VFR
Wind310° at 06 kt
W.Decomp.*RWY 31: 6.0 kt HW 0.7 kt LCW
RWY 36: 3.3 kt HW 5 kt LCW
W.Rank310° ranks 8
Current wind is below 310° avg. (7.4)
Visibility9999 m
Phenomena:N/A
Clouds:N/A
Expected CloudBase > 3,600 ft AGL from Temp-Dew spread
CeilingNone
Temp20°C (ISA +7)
Dew Point11°C (56% RH)
AAT18.1°C
QNH1025 hPa
Density Alt1,348 ft
Elevation801 ft
Report Wrong Elevation
Raw Report
KRCM 251355Z AUTO 31006KT 10SM CLR 20/11 A3027 RMK AO2=

Extra information for KRCM:More info

Metar Taf Metar & Taf Last 4 Metars F.Rules Stats Wind Profile Meteogram Temp Stats Metar ALERT Operation Metar Decoded Social comments